Time;durP1;ratioP1;P1;durP2;ratioP2;P2;SDS_P1;SDS_P2;PMS_P1;PMS_P2;Temp;Humidity;BMP_temperature;BMP_pressure;BME280_temperature;BME280_humidity;BME280_pressure;Samples;Min_cycle;Max_cycle;Signal;HPM_P1;HPM_P2
2022/12/26 00:00:56;;;;;;;17.57;12.43;;;17.90;65.80;;;;;;5013604;28;20543;-79
2022/12/26 00:03:24;;;;;;;18.83;13.07;;;17.90;65.90;;;;;;5013481;28;20456;-78
2022/12/26 00:05:53;;;;;;;16.00;11.57;;;17.90;65.90;;;;;;5011159;28;20479;-79
2022/12/26 00:08:21;;;;;;;18.73;11.77;;;17.90;66.00;;;;;;5012134;28;20463;-78
2022/12/26 00:10:51;;;;;;;15.93;11.53;;;17.90;66.00;;;;;;5011029;28;20479;-80
2022/12/26 00:13:18;;;;;;;18.83;12.50;;;17.90;65.90;;;;;;5016923;28;20459;-79
2022/12/26 00:16:08;;;;;;;15.53;11.30;;;17.90;66.10;;;;;;5017570;28;20468;-81
2022/12/26 00:18:37;;;;;;;25.13;13.23;;;17.90;66.00;;;;;;5015085;28;20476;-77
2022/12/26 00:21:05;;;;;;;23.10;13.13;;;16.40;66.00;;;;;;5014418;28;20467;-83
2022/12/26 00:23:34;;;;;;;22.60;14.27;;;14.50;73.40;;;;;;5016939;28;20452;-79
2022/12/26 00:26:04;;;;;;;19.03;11.97;;;14.70;82.50;;;;;;5013326;28;20479;-77
2022/12/26 00:28:32;;;;;;;26.03;12.00;;;15.60;82.40;;;;;;5011783;28;20462;-77
2022/12/26 00:31:03;;;;;;;17.63;12.20;;;16.30;80.40;;;;;;5022733;28;20463;-82
2022/12/26 00:33:31;;;;;;;25.80;12.37;;;16.70;78.00;;;;;;5020081;28;20997;-80
2022/12/26 00:36:01;;;;;;;25.33;12.50;;;17.00;76.10;;;;;;5024202;28;20483;-82
2022/12/26 00:38:29;;;;;;;24.33;11.47;;;17.20;74.40;;;;;;5020188;28;20456;-81
2022/12/26 00:40:57;;;;;;;23.50;11.87;;;17.40;73.40;;;;;;5018782;28;20448;-79
2022/12/26 00:43:27;;;;;;;27.17;11.47;;;17.50;72.50;;;;;;5016727;28;20547;-78
2022/12/26 00:45:55;;;;;;;24.80;10.60;;;17.60;71.60;;;;;;5015550;28;20479;-77
2022/12/26 00:48:23;;;;;;;17.70;10.30;;;17.70;71.00;;;;;;5017167;28;20555;-77
2022/12/26 00:50:51;;;;;;;18.63;10.27;;;17.70;70.60;;;;;;5016845;28;20476;-78
2022/12/26 00:53:19;;;;;;;18.00;10.33;;;17.70;70.20;;;;;;5015527;28;20452;-78
2022/12/26 00:55:47;;;;;;;18.27;9.90;;;17.80;69.90;;;;;;5012291;28;20452;-78
2022/12/26 00:58:15;;;;;;;22.10;10.63;;;17.80;69.50;;;;;;5014713;28;20455;-78
2022/12/26 01:00:45;;;;;;;22.30;10.17;;;17.80;69.10;;;;;;5014987;28;20468;-77
2022/12/26 01:03:13;;;;;;;26.03;10.33;;;17.80;69.00;;;;;;5011013;28;20457;-77
2022/12/26 01:05:41;;;;;;;14.57;9.00;;;17.90;68.80;;;;;;5008378;28;20481;-79
2022/12/26 01:08:10;;;;;;;18.43;9.80;;;17.90;68.60;;;;;;5008310;28;20455;-77
2022/12/26 01:10:50;;;;;;;23.13;9.47;;;17.90;68.50;;;;;;5012377;28;20503;-78
2022/12/26 01:13:18;;;;;;;19.13;9.43;;;17.90;68.30;;;;;;5014709;28;20528;-78
2022/12/26 01:15:51;;;;;;;15.90;9.27;;;17.90;68.30;;;;;;5011303;28;20453;-78
2022/12/26 01:18:20;;;;;;;20.47;9.70;;;17.90;68.20;;;;;;5012793;28;20510;-79
2022/12/26 01:20:48;;;;;;;18.30;9.77;;;17.90;68.10;;;;;;5011412;28;20468;-79
2022/12/26 01:23:16;;;;;;;20.30;8.53;;;17.90;67.90;;;;;;5012067;28;20522;-77
2022/12/26 01:25:44;;;;;;;18.73;8.57;;;17.90;68.00;;;;;;5007864;28;20479;-78
2022/12/26 01:28:32;;;;;;;19.37;9.37;;;17.90;67.90;;;;;;5008660;28;20472;-78
2022/12/26 01:31:05;;;;;;;26.03;9.30;;;17.90;67.80;;;;;;5011322;28;20449;-78
2022/12/26 01:33:32;;;;;;;15.90;9.10;;;17.90;67.70;;;;;;5011412;28;20448;-78
2022/12/26 01:36:00;;;;;;;20.87;9.10;;;17.90;67.70;;;;;;5009565;28;20475;-78
2022/12/26 01:38:28;;;;;;;18.80;8.90;;;17.90;67.80;;;;;;5012768;28;20453;-78
2022/12/26 01:43:55;;;;;;;15.53;8.40;;;17.90;67.70;;;;;;5011341;28;20463;-79
2022/12/26 01:46:27;;;;;;;17.87;8.03;;;17.90;67.50;;;;;;5011721;28;20472;-78
2022/12/26 01:48:58;;;;;;;11.83;8.00;;;17.90;67.60;;;;;;5009813;28;20473;-77
2022/12/26 01:51:26;;;;;;;16.43;7.87;;;17.90;67.60;;;;;;5010804;28;20547;-78
2022/12/26 01:53:56;;;;;;;13.87;7.90;;;17.90;67.60;;;;;;5018121;28;20444;-79
2022/12/26 01:56:44;;;;;;;15.37;7.60;;;17.80;67.50;;;;;;5010864;28;20448;-78
2022/12/26 01:59:15;;;;;;;19.57;7.97;;;17.90;67.60;;;;;;5010561;28;20481;-79
2022/12/26 02:01:45;;;;;;;24.33;9.00;;;17.90;67.40;;;;;;5006465;28;20458;-79
2022/12/26 02:07:01;;;;;;;20.60;7.60;;;17.90;67.40;;;;;;5008283;28;20487;-78
2022/12/26 02:09:29;;;;;;;24.80;8.00;;;17.80;67.40;;;;;;5012329;28;20460;-79
2022/12/26 02:11:59;;;;;;;20.80;8.23;;;17.80;67.40;;;;;;5013017;28;20436;-78
2022/12/26 02:14:47;;;;;;;15.90;7.80;;;17.80;67.20;;;;;;5009771;28;20459;-78
2022/12/26 02:17:16;;;;;;;17.47;8.10;;;17.80;67.30;;;;;;5012676;28;20440;-78
2022/12/26 02:19:47;;;;;;;11.20;7.27;;;17.80;67.40;;;;;;5013219;28;20544;-78
2022/12/26 02:22:48;;;;;;;17.10;7.90;;;17.80;67.30;;;;;;5012271;28;20440;-79
2022/12/26 02:25:30;;;;;;;10.17;7.90;;;17.80;67.20;;;;;;4969160;28;20476;-78
2022/12/26 02:28:22;;;;;;;14.60;7.57;;;17.80;67.20;;;;;;5010645;28;20978;-77
2022/12/26 02:30:51;;;;;;;16.10;7.47;;;17.80;67.30;;;;;;5010060;28;20483;-78
2022/12/26 02:33:31;;;;;;;12.33;7.40;;;17.70;67.20;;;;;;5012031;28;20440;-77
2022/12/26 02:36:30;;;;;;;13.90;7.80;;;17.80;67.30;;;;;;5011924;28;20438;-78
2022/12/26 02:39:06;;;;;;;12.37;7.20;;;17.80;67.30;;;;;;4977385;28;20471;-78
2022/12/26 02:41:57;;;;;;;13.27;7.37;;;17.80;67.20;;;;;;5015304;28;20433;-78
2022/12/26 02:47:15;;;;;;;15.77;7.27;;;17.80;67.20;;;;;;5018252;28;20480;-78
2022/12/26 03:15:14;;;;;;;13.60;6.90;;;17.70;67.40;;;;;;5016901;28;20440;-78
2022/12/26 03:17:42;;;;;;;10.73;6.83;;;17.70;67.50;;;;;;5015749;28;20966;-79
2022/12/26 03:20:12;;;;;;;11.00;7.30;;;17.80;67.30;;;;;;5017398;28;20468;-79
2022/12/26 03:22:43;;;;;;;13.93;6.83;;;17.80;67.20;;;;;;5016425;28;20456;-77
2022/12/26 03:27:58;;;;;;;21.93;6.60;;;17.80;67.20;;;;;;5013226;28;20442;-78
2022/12/26 03:35:55;;;;;;;16.10;6.43;;;17.70;67.20;;;;;;5011906;28;20454;-78
2022/12/26 03:38:24;;;;;;;11.57;6.40;;;17.80;67.20;;;;;;5015668;28;20452;-80
2022/12/26 04:20:38;;;;;;;8.50;6.53;;;17.70;67.30;;;;;;5010351;28;20479;-77
2022/12/26 04:45:26;;;;;;;6.23;5.53;;;17.70;67.20;;;;;;5010583;28;20470;-79
2022/12/26 04:50:36;;;;;;;9.40;6.10;;;17.70;67.10;;;;;;4990523;28;20494;-79
2022/12/26 04:53:05;;;;;;;6.83;5.60;;;17.70;67.20;;;;;;5014695;28;20460;-77
2022/12/26 04:55:34;;;;;;;8.63;5.63;;;17.70;67.10;;;;;;5012409;28;20465;-78
2022/12/26 04:58:04;;;;;;;8.57;6.03;;;17.70;67.00;;;;;;5011732;28;20459;-78
2022/12/26 05:00:32;;;;;;;9.20;6.10;;;17.70;66.90;;;;;;5012357;28;20472;-79
2022/12/26 05:11:22;;;;;;;10.03;5.93;;;17.70;67.00;;;;;;5010056;28;20460;-78
2022/12/26 05:13:53;;;;;;;7.53;5.90;;;17.60;67.00;;;;;;5011786;28;20456;-78
2022/12/26 05:30:25;;;;;;;8.50;5.10;;;17.60;66.90;;;;;;4998818;28;20522;-77
2022/12/26 05:35:39;;;;;;;6.93;5.60;;;17.60;67.10;;;;;;5012010;28;20452;-78
2022/12/26 05:38:06;;;;;;;8.23;6.00;;;17.60;67.00;;;;;;5012702;28;20455;-79
2022/12/26 05:40:35;;;;;;;10.33;5.63;;;17.70;67.00;;;;;;5010943;28;20476;-79
2022/12/26 05:43:03;;;;;;;9.37;5.80;;;17.60;66.90;;;;;;5012140;28;20455;-79
2022/12/26 05:45:32;;;;;;;8.50;6.23;;;17.60;66.80;;;;;;5009249;28;20457;-79
2022/12/26 05:48:00;;;;;;;7.83;5.77;;;17.60;66.90;;;;;;5010990;28;20472;-79
2022/12/26 05:50:28;;;;;;;11.10;6.43;;;17.70;66.90;;;;;;5012354;28;20563;-78
2022/12/26 05:52:56;;;;;;;9.30;5.03;;;17.70;66.90;;;;;;5012448;28;20459;-79
2022/12/26 05:55:24;;;;;;;6.60;5.20;;;17.70;66.80;;;;;;5013047;28;20458;-79
2022/12/26 05:57:52;;;;;;;6.50;5.03;;;17.70;66.90;;;;;;5013597;28;20444;-79
2022/12/26 06:00:20;;;;;;;7.20;5.40;;;17.70;66.80;;;;;;5013812;28;20468;-79
2022/12/26 06:02:50;;;;;;;7.40;5.53;;;17.70;66.80;;;;;;5012979;28;20452;-79
2022/12/26 06:05:18;;;;;;;12.20;4.97;;;17.70;66.70;;;;;;5013531;28;20452;-78
2022/12/26 06:07:47;;;;;;;7.67;6.03;;;17.70;66.70;;;;;;5013355;28;20463;-79
2022/12/26 06:10:14;;;;;;;6.57;5.57;;;17.70;66.70;;;;;;5013616;28;20490;-80
2022/12/26 06:12:43;;;;;;;8.07;5.80;;;17.60;66.80;;;;;;5012565;28;20452;-79
2022/12/26 06:15:11;;;;;;;7.80;5.93;;;17.70;66.70;;;;;;5013004;28;20455;-79
2022/12/26 06:17:39;;;;;;;7.73;6.00;;;17.70;66.70;;;;;;5013241;28;20455;-79
2022/12/26 06:20:10;;;;;;;6.63;5.50;;;17.70;66.70;;;;;;5012393;28;20476;-79
2022/12/26 06:22:37;;;;;;;6.60;5.60;;;17.60;66.70;;;;;;5010963;28;20469;-77
2022/12/26 06:25:07;;;;;;;7.97;6.40;;;17.60;66.80;;;;;;5010302;28;20540;-78
2022/12/26 06:27:35;;;;;;;8.03;6.37;;;17.60;66.70;;;;;;5004934;28;20484;-78
2022/12/26 06:30:04;;;;;;;7.97;5.77;;;17.60;66.80;;;;;;5010272;28;20498;-78
2022/12/26 06:32:31;;;;;;;7.63;5.70;;;17.60;66.80;;;;;;5009805;28;20463;-78
2022/12/26 06:35:00;;;;;;;8.43;6.10;;;17.60;66.70;;;;;;5010343;28;20448;-78
2022/12/26 06:37:29;;;;;;;7.80;6.10;;;17.60;66.70;;;;;;5009325;28;20455;-79
2022/12/26 06:39:58;;;;;;;8.07;5.90;;;17.60;66.60;;;;;;5010481;28;20503;-78
2022/12/26 06:42:27;;;;;;;11.00;7.33;;;17.60;66.60;;;;;;5009480;28;20456;-78
2022/12/26 06:44:55;;;;;;;11.20;6.33;;;17.60;66.60;;;;;;5010141;28;20460;-78
2022/12/26 06:47:23;;;;;;;6.83;6.20;;;17.60;66.70;;;;;;5008371;28;20468;-78
2022/12/26 06:49:52;;;;;;;7.60;5.80;;;17.70;66.50;;;;;;5009095;28;20484;-78
2022/12/26 06:52:20;;;;;;;7.37;5.60;;;17.70;66.50;;;;;;5009659;28;20456;-78
2022/12/26 06:54:49;;;;;;;7.87;6.00;;;17.70;66.50;;;;;;5009047;28;20485;-79
2022/12/26 06:57:17;;;;;;;11.20;6.33;;;17.70;66.60;;;;;;5010606;28;20479;-79
2022/12/26 06:59:44;;;;;;;9.00;6.50;;;17.70;66.50;;;;;;5008046;28;20473;-78
2022/12/26 07:02:13;;;;;;;7.47;6.40;;;17.60;66.40;;;;;;5018796;28;20459;-79
2022/12/26 07:04:41;;;;;;;11.23;7.43;;;17.60;66.30;;;;;;5030196;28;20452;-78
2022/12/26 07:07:09;;;;;;;8.33;6.40;;;17.60;66.30;;;;;;5032638;28;20456;-79
2022/12/26 07:09:37;;;;;;;9.40;6.30;;;17.60;66.40;;;;;;5033024;28;20552;-78
2022/12/26 07:12:07;;;;;;;10.80;7.47;;;17.60;66.30;;;;;;5034123;28;20515;-78
2022/12/26 07:14:34;;;;;;;7.73;6.17;;;17.60;66.40;;;;;;5033937;28;20474;-78
2022/12/26 07:17:03;;;;;;;7.30;6.30;;;17.50;66.20;;;;;;5034022;28;20444;-79
2022/12/26 07:19:30;;;;;;;8.30;6.53;;;17.60;66.40;;;;;;5032213;28;20452;-78
2022/12/26 07:21:59;;;;;;;8.67;6.20;;;17.60;66.40;;;;;;5030973;28;20428;-79
2022/12/26 07:24:26;;;;;;;9.50;7.27;;;17.60;66.50;;;;;;5031443;28;20452;-78
2022/12/26 07:26:54;;;;;;;8.47;6.50;;;17.60;66.20;;;;;;5029684;28;20445;-79
2022/12/26 07:29:23;;;;;;;7.13;5.90;;;17.60;66.30;;;;;;5027328;28;20571;-79
2022/12/26 07:31:51;;;;;;;7.17;5.77;;;17.60;66.20;;;;;;5014422;28;20535;-78
2022/12/26 07:34:19;;;;;;;9.00;6.60;;;17.60;66.20;;;;;;5017493;28;20456;-79
2022/12/26 07:36:53;;;;;;;10.50;6.50;;;17.60;66.30;;;;;;5016236;28;20523;-79
2022/12/26 07:39:21;;;;;;;8.97;5.80;;;17.60;66.10;;;;;;5015897;28;20468;-79
2022/12/26 07:41:58;;;;;;;7.40;6.23;;;17.60;66.20;;;;;;5011354;28;20452;-79
2022/12/26 07:44:28;;;;;;;7.23;6.40;;;17.60;66.10;;;;;;5014724;28;20450;-78
2022/12/26 07:46:56;;;;;;;9.63;6.30;;;17.60;66.30;;;;;;5012273;28;20453;-79
2022/12/26 07:49:25;;;;;;;6.87;6.00;;;17.60;66.20;;;;;;5011611;28;20542;-79
2022/12/26 07:51:52;;;;;;;7.57;6.30;;;17.60;66.10;;;;;;5015650;28;20900;-80
2022/12/26 07:54:21;;;;;;;7.57;6.00;;;17.60;66.20;;;;;;5014827;28;20460;-80
2022/12/26 07:56:49;;;;;;;8.53;6.07;;;17.60;66.20;;;;;;5014712;28;20455;-81
2022/12/26 07:59:17;;;;;;;7.80;6.97;;;17.60;66.20;;;;;;5016608;28;20468;-81
2022/12/26 08:01:47;;;;;;;7.60;6.17;;;17.60;66.20;;;;;;5014092;28;20543;-81
2022/12/26 08:04:15;;;;;;;7.10;6.00;;;17.70;66.10;;;;;;5014513;28;20456;-82
2022/12/26 08:06:43;;;;;;;6.70;6.00;;;17.70;66.30;;;;;;5009903;28;20459;-81
2022/12/26 08:09:14;;;;;;;6.77;6.03;;;17.70;66.20;;;;;;5006709;28;20491;-80
2022/12/26 08:11:42;;;;;;;7.30;5.53;;;17.70;66.10;;;;;;5014977;28;20448;-80
2022/12/26 08:14:10;;;;;;;9.30;5.87;;;17.70;66.40;;;;;;5023358;28;20471;-81
2022/12/26 08:16:39;;;;;;;5.93;5.13;;;17.60;66.10;;;;;;5011756;28;20453;-80
2022/12/26 08:19:08;;;;;;;5.83;5.20;;;17.70;66.10;;;;;;5014422;28;20510;-81
2022/12/26 08:21:37;;;;;;;6.17;5.57;;;17.70;66.10;;;;;;5011544;28;20457;-78
2022/12/26 08:24:05;;;;;;;6.37;5.57;;;17.70;66.20;;;;;;5013700;28;20464;-78
2022/12/26 08:26:32;;;;;;;5.90;5.30;;;17.70;66.10;;;;;;5014128;28;20463;-79
2022/12/26 08:29:00;;;;;;;12.53;5.63;;;17.70;65.90;;;;;;5014801;28;20533;-79
2022/12/26 08:31:29;;;;;;;6.60;5.90;;;17.70;66.10;;;;;;5012840;28;20460;-77
2022/12/26 08:33:57;;;;;;;10.67;6.23;;;17.70;66.00;;;;;;5013697;28;20506;-78
2022/12/26 08:36:27;;;;;;;5.70;5.00;;;17.70;66.00;;;;;;5013590;28;20459;-78
2022/12/26 08:38:55;;;;;;;6.93;5.33;;;17.70;65.80;;;;;;5013657;28;20475;-78
2022/12/26 08:41:23;;;;;;;8.17;5.90;;;17.70;65.90;;;;;;5010156;28;20463;-78
2022/12/26 08:43:52;;;;;;;6.70;5.53;;;17.70;65.80;;;;;;5012956;28;20465;-78
2022/12/26 08:46:40;;;;;;;6.13;5.50;;;17.70;65.90;;;;;;5009817;28;20448;-79
2022/12/26 08:49:08;;;;;;;6.27;5.53;;;17.70;66.00;;;;;;5012747;28;20480;-79
2022/12/26 08:51:37;;;;;;;6.40;5.30;;;17.80;66.00;;;;;;5012695;28;20467;-79
2022/12/26 08:54:06;;;;;;;6.53;5.30;;;17.80;66.00;;;;;;5015160;28;20464;-79
2022/12/26 08:56:34;;;;;;;7.63;5.70;;;17.80;65.90;;;;;;5013177;28;20452;-77
2022/12/26 08:59:02;;;;;;;6.63;5.97;;;17.80;65.90;;;;;;5011306;28;20468;-78
2022/12/26 09:01:30;;;;;;;7.23;5.67;;;17.80;65.90;;;;;;5008409;28;20463;-78
2022/12/26 09:04:01;;;;;;;8.53;6.07;;;17.70;65.80;;;;;;5008192;28;20536;-77
2022/12/26 09:06:32;;;;;;;7.67;6.67;;;17.80;65.80;;;;;;5009960;28;20539;-78
2022/12/26 09:09:01;;;;;;;6.83;6.13;;;17.80;65.80;;;;;;5010505;28;20484;-77
2022/12/26 09:11:29;;;;;;;8.00;6.17;;;17.80;65.80;;;;;;5010718;28;20452;-77
2022/12/26 09:13:58;;;;;;;8.40;6.97;;;17.80;65.70;;;;;;5012588;28;20448;-77
2022/12/26 09:16:27;;;;;;;9.43;6.63;;;17.80;65.70;;;;;;5012543;28;20455;-78
2022/12/26 09:19:02;;;;;;;11.17;6.63;;;17.80;65.60;;;;;;5010113;28;20475;-79
2022/12/26 09:21:30;;;;;;;7.63;6.27;;;17.80;65.60;;;;;;5009149;28;20452;-77
2022/12/26 09:23:59;;;;;;;9.73;6.73;;;17.80;65.70;;;;;;5009779;28;20449;-77
2022/12/26 09:26:29;;;;;;;8.57;6.40;;;17.80;65.50;;;;;;5011975;28;20460;-78
2022/12/26 09:28:57;;;;;;;10.53;7.07;;;17.90;65.50;;;;;;5009495;28;20483;-77
2022/12/26 09:31:25;;;;;;;8.30;6.20;;;17.90;65.50;;;;;;5011227;28;20471;-78
2022/12/26 09:33:53;;;;;;;8.90;6.83;;;17.90;65.30;;;;;;5010970;28;20463;-78
2022/12/26 09:36:22;;;;;;;8.30;7.07;;;17.90;65.40;;;;;;5014948;28;20539;-79
2022/12/26 09:38:50;;;;;;;9.60;7.83;;;17.90;65.40;;;;;;5012757;28;20482;-80
2022/12/26 09:41:50;;;;;;;9.40;7.37;;;18.00;66.20;;;;;;5013634;28;20448;-79
2022/12/26 09:44:20;;;;;;;7.93;6.73;;;18.00;65.20;;;;;;5005755;28;20452;-78
2022/12/26 09:46:53;;;;;;;8.60;6.93;;;18.00;65.30;;;;;;5010347;28;20463;-77
2022/12/26 09:49:22;;;;;;;9.57;7.17;;;18.00;65.20;;;;;;5011982;28;20486;-77
2022/12/26 09:51:56;;;;;;;8.93;6.57;;;18.00;65.10;;;;;;5008471;28;20465;-77
2022/12/26 09:54:28;;;;;;;7.30;6.53;;;18.10;65.10;;;;;;5010975;28;20452;-79
2022/12/26 09:56:58;;;;;;;10.03;7.30;;;18.10;65.00;;;;;;5013285;28;20467;-78
2022/12/26 09:59:34;;;;;;;8.90;6.53;;;18.10;65.00;;;;;;5013283;28;20475;-77
2022/12/26 10:02:02;;;;;;;7.67;6.90;;;18.20;65.00;;;;;;5013241;28;20540;-79
2022/12/26 10:04:30;;;;;;;8.50;6.60;;;18.10;64.90;;;;;;5012994;28;20452;-80
2022/12/26 10:07:04;;;;;;;7.03;6.27;;;18.10;65.00;;;;;;5013150;28;20452;-79
2022/12/26 10:10:05;;;;;;;7.40;6.60;;;18.10;64.90;;;;;;5010890;28;20486;-78
2022/12/26 10:12:40;;;;;;;7.10;6.17;;;18.20;65.00;;;;;;5008385;28;20909;-78
2022/12/26 10:15:18;;;;;;;7.30;6.30;;;18.30;65.10;;;;;;5010280;28;20461;-77
2022/12/26 10:17:49;;;;;;;7.30;6.60;;;18.30;64.80;;;;;;5009531;28;20460;-77
2022/12/26 10:20:22;;;;;;;8.43;6.27;;;18.40;64.70;;;;;;5002463;28;20495;-77
2022/12/26 10:23:10;;;;;;;6.70;6.00;;;18.40;64.60;;;;;;5007612;28;20460;-78
2022/12/26 10:25:42;;;;;;;8.03;5.93;;;18.50;64.60;;;;;;5009791;28;20452;-80
2022/12/26 10:28:17;;;;;;;6.17;5.57;;;18.50;64.60;;;;;;5009741;28;20452;-78
2022/12/26 10:30:45;;;;;;;6.60;6.00;;;18.50;64.40;;;;;;5010911;28;20487;-78
2022/12/26 10:33:16;;;;;;;7.13;5.70;;;18.50;64.50;;;;;;5014090;28;20535;-79
2022/12/26 10:35:44;;;;;;;7.73;5.80;;;18.50;64.50;;;;;;5013422;28;20452;-77
2022/12/26 10:38:15;;;;;;;6.60;5.40;;;18.40;64.30;;;;;;5010714;28;20452;-78
2022/12/26 10:40:44;;;;;;;5.27;4.87;;;18.40;64.50;;;;;;5009269;28;20468;-79
2022/12/26 10:43:21;;;;;;;6.90;5.33;;;18.40;64.60;;;;;;5014518;28;20459;-77
2022/12/26 10:45:50;;;;;;;7.30;5.40;;;18.40;64.60;;;;;;5018259;28;20449;-80
2022/12/26 10:48:18;;;;;;;6.50;4.53;;;18.30;64.60;;;;;;5016971;28;20459;-78
2022/12/26 10:50:48;;;;;;;12.13;6.70;;;18.20;65.30;;;;;;5015396;28;20483;-79
2022/12/26 10:53:17;;;;;;;12.10;6.70;;;16.40;65.90;;;;;;5016474;28;20452;-80
2022/12/26 10:55:45;;;;;;;10.87;7.17;;;15.10;70.70;;;;;;5014156;28;20463;-80
2022/12/26 10:58:17;;;;;;;8.40;6.63;;;14.50;74.40;;;;;;5013078;28;20519;-79
2022/12/26 11:00:45;;;;;;;14.10;6.40;;;13.80;77.20;;;;;;5010709;28;20464;-82
2022/12/26 11:03:14;;;;;;;13.27;6.60;;;14.00;79.70;;;;;;5011794;28;20452;-80
2022/12/26 11:05:43;;;;;;;12.77;6.63;;;13.90;80.20;;;;;;5014949;28;20455;-82
2022/12/26 11:08:33;;;;;;;11.40;6.50;;;13.50;81.30;;;;;;5016170;28;20464;-80
2022/12/26 11:11:12;;;;;;;9.50;4.97;;;14.00;89.60;;;;;;5017780;28;20484;-80
2022/12/26 11:13:47;;;;;;;7.80;4.23;;;15.10;84.80;;;;;;5017008;28;20456;-78
2022/12/26 11:16:23;;;;;;;8.40;5.00;;;15.80;80.10;;;;;;5016935;28;20456;-81
2022/12/26 11:18:51;;;;;;;8.87;4.87;;;16.30;76.30;;;;;;5014564;28;20468;-78
2022/12/26 11:21:22;;;;;;;14.17;4.10;;;16.70;74.20;;;;;;5011688;28;20452;-78
2022/12/26 11:23:51;;;;;;;9.53;4.20;;;16.90;72.20;;;;;;5014796;28;20459;-79
2022/12/26 11:26:21;;;;;;;7.70;3.90;;;17.10;71.00;;;;;;5014965;28;20467;-77
2022/12/26 11:29:04;;;;;;;8.17;4.67;;;17.30;70.10;;;;;;5020238;28;20463;-76
2022/12/26 11:31:33;;;;;;;7.27;3.93;;;17.40;69.30;;;;;;5011304;28;20479;-76
2022/12/26 11:34:01;;;;;;;10.20;3.80;;;17.50;68.80;;;;;;5014545;28;20456;-80
2022/12/26 11:36:29;;;;;;;5.40;3.90;;;17.50;68.20;;;;;;5025161;28;20448;-80
2022/12/26 11:38:58;;;;;;;7.70;3.93;;;17.70;68.00;;;;;;5022225;28;20507;-81
2022/12/26 11:41:38;;;;;;;6.43;3.90;;;17.70;67.40;;;;;;5024249;28;20510;-82
2022/12/26 11:44:25;;;;;;;5.97;3.70;;;17.90;67.50;;;;;;5025459;28;20452;-81
2022/12/26 11:46:56;;;;;;;8.07;3.73;;;18.00;67.00;;;;;;5026796;28;20456;-80
2022/12/26 11:49:28;;;;;;;7.07;4.07;;;18.10;66.80;;;;;;5022405;28;20496;-81
2022/12/26 11:51:55;;;;;;;7.77;4.10;;;18.20;66.40;;;;;;5023375;28;20444;-78
2022/12/26 11:54:29;;;;;;;6.43;3.90;;;18.30;66.40;;;;;;5023156;28;20506;-79
2022/12/26 11:57:02;;;;;;;6.23;4.33;;;18.50;66.10;;;;;;5022584;28;20463;-81
2022/12/26 11:59:32;;;;;;;6.70;4.60;;;18.70;66.10;;;;;;5019603;28;20477;-81
2022/12/26 12:02:22;;;;;;;11.70;4.90;;;18.90;65.90;;;;;;5020863;28;20464;-80
2022/12/26 12:04:53;;;;;;;5.67;3.83;;;19.10;64.90;;;;;;5017457;28;20461;-78
2022/12/26 12:07:47;;;;;;;5.10;3.60;;;19.10;64.50;;;;;;5013377;28;20952;-77
2022/12/26 12:10:33;;;;;;;8.30;4.27;;;19.20;64.20;;;;;;5012499;28;20479;-78
2022/12/26 12:13:04;;;;;;;8.70;4.03;;;19.20;64.00;;;;;;5012428;28;20960;-77
2022/12/26 12:15:36;;;;;;;8.03;4.30;;;19.20;63.90;;;;;;5016736;28;20523;-78
2022/12/26 12:18:06;;;;;;;6.27;4.23;;;19.20;63.80;;;;;;5014770;28;20453;-77
2022/12/26 12:20:38;;;;;;;9.20;4.20;;;19.20;63.60;;;;;;5015792;28;20479;-81
2022/12/26 12:23:26;;;;;;;7.57;4.17;;;19.20;63.60;;;;;;5014406;28;20481;-77
2022/12/26 12:26:00;;;;;;;8.10;4.20;;;19.20;63.50;;;;;;5013003;28;20456;-79
2022/12/26 12:29:00;;;;;;;17.03;4.13;;;19.10;63.60;;;;;;5013748;28;20449;-81
2022/12/26 12:31:36;;;;;;;5.83;3.97;;;19.30;64.00;;;;;;5017219;28;20475;-77
2022/12/26 12:34:07;;;;;;;6.00;3.73;;;19.30;63.60;;;;;;5012908;28;20509;-80
2022/12/26 12:36:38;;;;;;;5.37;3.97;;;19.20;63.40;;;;;;5015910;28;20510;-80
2022/12/26 12:39:11;;;;;;;11.97;3.80;;;19.10;63.40;;;;;;5015871;28;20476;-85
2022/12/26 12:42:03;;;;;;;9.37;3.93;;;19.00;63.50;;;;;;5016019;28;20445;-81
2022/12/26 12:44:39;;;;;;;8.73;4.20;;;19.00;63.60;;;;;;5013841;28;20448;-79
2022/12/26 12:47:13;;;;;;;3.93;3.63;;;18.90;64.00;;;;;;5015186;28;20448;-81
2022/12/26 12:49:51;;;;;;;17.47;4.80;;;18.90;64.00;;;;;;5018480;28;20472;-77
2022/12/26 12:52:26;;;;;;;9.30;3.97;;;18.80;64.10;;;;;;5015840;28;20487;-78
2022/12/26 12:55:40;;;;;;;7.60;4.87;;;18.80;64.30;;;;;;5018080;28;20451;-80
2022/12/26 12:58:14;;;;;;;11.47;4.93;;;18.80;64.30;;;;;;4996002;28;20461;-77
2022/12/26 13:00:44;;;;;;;12.87;4.20;;;18.70;64.30;;;;;;5013972;28;20479;-78
2022/12/26 13:03:25;;;;;;;7.00;4.63;;;18.70;64.50;;;;;;5012631;28;20504;-81
2022/12/26 13:05:59;;;;;;;6.20;4.37;;;18.70;64.60;;;;;;5016066;28;20448;-81
2022/12/26 13:08:30;;;;;;;7.10;4.43;;;18.70;64.60;;;;;;5018763;28;20460;-83
2022/12/26 13:11:01;;;;;;;12.23;5.07;;;18.80;64.90;;;;;;5015282;28;20480;-79
2022/12/26 13:13:30;;;;;;;11.10;5.10;;;18.80;65.60;;;;;;5013014;28;20484;-83
2022/12/26 13:16:01;;;;;;;16.73;5.30;;;18.80;65.60;;;;;;5014958;28;20483;-80
2022/12/26 13:18:33;;;;;;;11.90;4.57;;;18.90;65.10;;;;;;5015194;28;21014;-81
2022/12/26 13:21:04;;;;;;;13.47;5.40;;;19.10;65.10;;;;;;5015384;28;20432;-83
2022/12/26 13:26:20;;;;;;;7.77;3.97;;;19.30;64.60;;;;;;5016524;28;20515;-82
2022/12/26 13:28:52;;;;;;;11.47;4.40;;;19.40;64.00;;;;;;5012418;28;20463;-82
2022/12/26 13:31:21;;;;;;;8.93;4.60;;;19.40;63.70;;;;;;5015786;28;20472;-83
2022/12/26 13:33:50;;;;;;;12.10;4.80;;;19.40;63.70;;;;;;5015584;28;20552;-83
2022/12/26 13:36:38;;;;;;;7.57;3.80;;;19.40;63.40;;;;;;5014968;28;20459;-83
2022/12/26 13:39:35;;;;;;;7.53;4.50;;;19.40;63.10;;;;;;5019294;28;20480;-83
2022/12/26 13:45:41;;;;;;;9.87;4.77;;;19.20;63.60;;;;;;5021908;28;20460;-84
2022/12/26 13:48:47;;;;;;;11.20;4.00;;;19.20;64.20;;;;;;5016862;28;20427;-83
2022/12/26 13:51:53;;;;;;;8.33;3.73;;;19.10;63.40;;;;;;5020110;28;20483;-83
2022/12/26 13:54:22;;;;;;;9.03;4.03;;;19.00;63.40;;;;;;5002865;28;20459;-82
2022/12/26 13:57:14;;;;;;;13.13;4.10;;;18.90;63.50;;;;;;5020302;28;20483;-83
2022/12/26 13:59:47;;;;;;;10.40;4.60;;;18.90;63.60;;;;;;5016265;28;20472;-83
2022/12/26 14:02:24;;;;;;;8.00;4.67;;;18.80;63.80;;;;;;5020215;28;20452;-84
2022/12/26 14:05:22;;;;;;;11.60;4.40;;;18.70;63.80;;;;;;5021160;28;20486;-83
2022/12/26 14:07:57;;;;;;;8.27;4.53;;;18.70;63.90;;;;;;5014466;28;20443;-80
2022/12/26 14:10:29;;;;;;;10.87;4.50;;;18.70;63.90;;;;;;5017090;28;20467;-81
2022/12/26 14:13:03;;;;;;;8.43;4.50;;;18.60;64.00;;;;;;5009402;28;20481;-80
2022/12/26 14:15:42;;;;;;;7.33;4.33;;;18.50;64.10;;;;;;5011777;28;20464;-80
2022/12/26 14:18:18;;;;;;;10.33;4.70;;;18.50;64.00;;;;;;5008312;28;20436;-80
2022/12/26 14:20:49;;;;;;;7.27;4.30;;;18.50;64.30;;;;;;5017453;28;20465;-80
2022/12/26 14:23:28;;;;;;;11.73;4.30;;;18.50;64.40;;;;;;5011335;28;20467;-79
2022/12/26 14:25:59;;;;;;;12.30;4.63;;;18.50;64.30;;;;;;5014375;28;20529;-79
2022/12/26 14:28:29;;;;;;;11.60;5.30;;;18.40;64.10;;;;;;5011786;28;20464;-80
2022/12/26 14:31:08;;;;;;;9.50;4.30;;;18.40;64.10;;;;;;5010594;28;20457;-80
2022/12/26 14:33:39;;;;;;;8.03;4.10;;;18.30;63.90;;;;;;5008566;28;20547;-81
2022/12/26 14:36:19;;;;;;;5.40;4.30;;;18.30;63.80;;;;;;5016226;28;20449;-80
2022/12/26 14:38:52;;;;;;;11.80;4.17;;;18.30;63.60;;;;;;5014064;28;20459;-81
2022/12/26 14:44:11;;;;;;;10.37;4.33;;;18.10;63.10;;;;;;5014775;28;20464;-82
2022/12/26 14:46:59;;;;;;;7.57;4.40;;;18.10;63.40;;;;;;5014954;28;20455;-82
2022/12/26 14:49:37;;;;;;;8.40;4.53;;;18.10;63.40;;;;;;5017968;28;20472;-82
2022/12/26 14:52:39;;;;;;;10.03;4.87;;;18.00;63.30;;;;;;5017116;28;20453;-82
2022/12/26 14:55:44;;;;;;;7.67;4.43;;;18.00;63.60;;;;;;5016199;28;20462;-82
2022/12/26 14:58:35;;;;;;;9.73;4.70;;;18.00;63.70;;;;;;5018376;28;20457;-82
2022/12/26 15:01:43;;;;;;;10.77;5.10;;;18.00;63.70;;;;;;5007002;28;20453;-81
2022/12/26 15:04:23;;;;;;;9.30;4.80;;;18.00;63.70;;;;;;5005539;28;20475;-80
2022/12/26 15:07:26;;;;;;;16.03;4.60;;;18.00;62.90;;;;;;5015362;28;20202;-83
2022/12/26 15:10:14;;;;;;;12.77;4.13;;;17.90;63.60;;;;;;4986613;28;20475;-82
2022/12/26 15:13:22;;;;;;;11.67;4.70;;;17.80;63.70;;;;;;5011746;28;20483;-82
2022/12/26 15:16:05;;;;;;;16.27;3.07;;;17.50;60.90;;;;;;5002413;28;20451;-82
2022/12/26 15:19:05;;;;;;;13.40;2.60;;;16.40;55.90;;;;;;5014161;28;20457;-81
2022/12/26 15:21:46;;;;;;;11.03;3.20;;;16.00;55.00;;;;;;5009304;28;20467;-82
2022/12/26 15:24:41;;;;;;;13.80;2.53;;;15.80;53.50;;;;;;5017252;28;20460;-83
2022/12/26 15:27:41;;;;;;;9.80;2.70;;;15.60;52.40;;;;;;5017102;28;20448;-81
2022/12/26 15:30:20;;;;;;;14.33;3.00;;;15.50;51.60;;;;;;5014840;28;20482;-82
2022/12/26 15:32:55;;;;;;;19.43;3.03;;;15.50;52.80;;;;;;5018575;28;20475;-81
2022/12/26 15:35:27;;;;;;;9.30;2.40;;;15.80;53.70;;;;;;5016399;28;20528;-83